Portada
METAR-TAF:

METAR-TAF

Aeroports :

Aeroport de Gran Canària

Gran Canària, Espanya

latitud: 27-56N, longitud: 015-23W, altitud: 23 m

Observació

L'informe es va fer fa 20 minuts, a les 00:30 UTC
Vent 13 kt del Nord
Temperatura 18°C
Humitat 64%
Pressió 1018 hPa
Visibilitat 10 km o més
Escasses núvols a una alçada de 2500 ft
Núvols disperses a una alçada de 3000 ft

METAR: GCLP 200030Z 36013KT 9999 FEW025 SCT030 18/11 Q1018 NOSIG

Hora: 00:50 (00:50 UTC)

Pronòstic

L'informe es va fer fa 1 hora i 9 minuts, a les 23:41 UTC
Pronòstic vàlid del 19 a les 23 UTC al 20 a les 21 UTC
Vent 22 kt del Nord
Visibilitat 10 km o més
Núvols disperses a una alçada de 3000 ft
Probabilitat 40% :
Temporalment
l' 19 a les 23 UTC al 20 a les 08 UTC
Vent 12 kt del Nord

TAF: GCLP 192341Z 1923/2021 01022KT 9999 SCT030 TX22/2014Z TN16/2006Z PROB40 TEMPO 1923/2008 01012KT

Observacions i pronòstics meteorològics de més de 4000 aeroports (METAR i TAF).

Les estacions disponibles són els punts grocs i vermells al mapa.

Posi el ratolí al punt desitjat per veure el nom de l'estació.

Feu clic per veure les observacions i els pronòstics meteorològics.

Per canviar el mapa: feu clic els botons verds amb una creu de color negre per apropar; al botó verd amb un guió per allunyar la imatge; o en les fletxes verdes per a mapes adjacents.


METAR-TAF: